William P Hobby Airport
KHOU : now visible

Airfield :











YOU CAN JOIN US ON...

 
LOGIN :

Register | Disclaimer

   EN    FR    IT 

 









Legend :    VFR   Marginal VFR   IFR   Intensive IFR   Very Intensive IFR
Visi :
Ceiling :
>= 8 km
>= 3000ft
5 to 8 km
1000 to 3000 ft
1500m to 5 km
500 to 1000 ft
800 to 1500m
200 to 500 ft
< 800m
< 200 ft
Symbols :   Thunderstorms  Fog  Heavy snow  Heavy precipitations  Wind > 20 kt






- Airport Elevation : 46 ft
- IATA code : HOU


KHOU - William P Hobby

CURRENT METAR :
  • 281553Z 18007KT 10SM SCT020 SCT050 SCT120 29/23 A2995 RMK AO2 SLP146 T02890228

EXPIRED METARs :
  • 281453Z 19008KT 10SM SCT020 SCT120 28/22 A2995 RMK AO2 SLP146 ACCAS OHD T02780222 51021
  • 281353Z 12004KT 10SM FEW120 SCT220 SCT300 26/21 A2994 RMK AO2 SLP143 T02610211

TAF KHOU
Valid from the 28 at 15:00 until the 29 at 12:00 UTC


281500Z 2815/2912 VRB06KT P6SM FEW020 SCT030 SCT100
FM281700 VRB04KT P6SM VCTS SCT050CB BKN080
TEMPO 2819/2823 VRB25KT 2SM TSRA OVC050CB
FM290100 VRB04KT P6SM FEW050 BKN200
FM290900 35004KT P6SM SCT250
KZHU FIR / North America



MET'MAP, your aeronautical weather chart ! - Copyright ORBIFLY December 2007 - Disclaimer

ORBIFLY MET'MAP TEAM :

Programming & Development : Alexandra Zaïnal
Concept & original design : Baudouin d'Aumeries
Assistance for programming : Marc-Olivier Méhu
Technical & hardware support : Manuel Goepfert

Contact : metmap@orbifly.com




SOURCES & CREDITS :

   NOAA       Earth
Advisory